sensor_id;sensor_type;location;lat;lon;timestamp;P1;durP1;ratioP1;P2;durP2;ratioP2
23044;SDS011;11690;51.716;23.066;2023-09-08T00:00:50;6.30;;;4.00;;
23044;SDS011;11690;51.716;23.066;2023-09-08T00:03:30;5.10;;;3.40;;
23044;SDS011;11690;51.716;23.066;2023-09-08T00:05:57;6.38;;;3.50;;
23044;SDS011;11690;51.716;23.066;2023-09-08T00:08:24;11.63;;;3.72;;
23044;SDS011;11690;51.716;23.066;2023-09-08T00:10:51;4.55;;;3.03;;
23044;SDS011;11690;51.716;23.066;2023-09-08T00:13:20;6.35;;;3.53;;
23044;SDS011;11690;51.716;23.066;2023-09-08T00:15:47;8.75;;;4.00;;
23044;SDS011;11690;51.716;23.066;2023-09-08T00:18:14;7.22;;;3.30;;
23044;SDS011;11690;51.716;23.066;2023-09-08T00:20:41;6.38;;;3.05;;
23044;SDS011;11690;51.716;23.066;2023-09-08T00:23:09;5.63;;;3.95;;
23044;SDS011;11690;51.716;23.066;2023-09-08T00:25:36;5.00;;;3.33;;
23044;SDS011;11690;51.716;23.066;2023-09-08T00:28:03;6.93;;;3.25;;
23044;SDS011;11690;51.716;23.066;2023-09-08T00:30:31;5.65;;;3.83;;
23044;SDS011;11690;51.716;23.066;2023-09-08T00:32:58;5.85;;;3.53;;
23044;SDS011;11690;51.716;23.066;2023-09-08T00:35:26;6.13;;;3.88;;
23044;SDS011;11690;51.716;23.066;2023-09-08T00:37:53;7.13;;;3.75;;
23044;SDS011;11690;51.716;23.066;2023-09-08T00:40:20;8.43;;;3.65;;
23044;SDS011;11690;51.716;23.066;2023-09-08T00:42:47;5.95;;;3.60;;
23044;SDS011;11690;51.716;23.066;2023-09-08T00:45:15;7.25;;;3.83;;
23044;SDS011;11690;51.716;23.066;2023-09-08T00:47:42;5.22;;;3.28;;
23044;SDS011;11690;51.716;23.066;2023-09-08T00:50:09;5.55;;;3.60;;
23044;SDS011;11690;51.716;23.066;2023-09-08T00:52:37;5.20;;;3.55;;
23044;SDS011;11690;51.716;23.066;2023-09-08T00:55:04;5.63;;;3.65;;
23044;SDS011;11690;51.716;23.066;2023-09-08T00:57:31;6.75;;;3.80;;
23044;SDS011;11690;51.716;23.066;2023-09-08T00:59:59;6.57;;;3.70;;
23044;SDS011;11690;51.716;23.066;2023-09-08T01:02:26;6.20;;;4.00;;
23044;SDS011;11690;51.716;23.066;2023-09-08T01:04:54;6.95;;;3.80;;
23044;SDS011;11690;51.716;23.066;2023-09-08T01:07:21;6.32;;;3.80;;
23044;SDS011;11690;51.716;23.066;2023-09-08T01:09:49;6.90;;;3.58;;
23044;SDS011;11690;51.716;23.066;2023-09-08T01:12:16;6.53;;;3.58;;
23044;SDS011;11690;51.716;23.066;2023-09-08T01:14:44;5.32;;;3.70;;
23044;SDS011;11690;51.716;23.066;2023-09-08T01:17:11;10.07;;;3.65;;
23044;SDS011;11690;51.716;23.066;2023-09-08T01:19:39;5.15;;;3.70;;
23044;SDS011;11690;51.716;23.066;2023-09-08T01:27:41;9.52;;;3.97;;
23044;SDS011;11690;51.716;23.066;2023-09-08T01:30:12;8.75;;;4.65;;
23044;SDS011;11690;51.716;23.066;2023-09-08T01:32:40;9.68;;;4.15;;
23044;SDS011;11690;51.716;23.066;2023-09-08T01:35:07;8.43;;;4.50;;
23044;SDS011;11690;51.716;23.066;2023-09-08T01:37:35;8.27;;;3.72;;
23044;SDS011;11690;51.716;23.066;2023-09-08T01:40:02;12.57;;;3.55;;
23044;SDS011;11690;51.716;23.066;2023-09-08T01:42:29;7.30;;;3.85;;
23044;SDS011;11690;51.716;23.066;2023-09-08T01:44:57;8.07;;;4.10;;
23044;SDS011;11690;51.716;23.066;2023-09-08T01:47:24;6.68;;;3.80;;
23044;SDS011;11690;51.716;23.066;2023-09-08T01:49:51;6.75;;;3.97;;
23044;SDS011;11690;51.716;23.066;2023-09-08T01:52:18;10.63;;;4.25;;
23044;SDS011;11690;51.716;23.066;2023-09-08T01:54:46;6.55;;;3.75;;
23044;SDS011;11690;51.716;23.066;2023-09-08T01:57:13;8.57;;;3.97;;
23044;SDS011;11690;51.716;23.066;2023-09-08T01:59:40;6.88;;;3.92;;
23044;SDS011;11690;51.716;23.066;2023-09-08T02:02:07;6.90;;;3.47;;
23044;SDS011;11690;51.716;23.066;2023-09-08T02:04:34;6.85;;;3.55;;
23044;SDS011;11690;51.716;23.066;2023-09-08T02:07:01;8.48;;;3.80;;
23044;SDS011;11690;51.716;23.066;2023-09-08T02:09:31;7.22;;;4.13;;
23044;SDS011;11690;51.716;23.066;2023-09-08T02:11:59;6.05;;;3.67;;
23044;SDS011;11690;51.716;23.066;2023-09-08T02:14:28;9.65;;;3.95;;
23044;SDS011;11690;51.716;23.066;2023-09-08T02:16:56;8.70;;;4.55;;
23044;SDS011;11690;51.716;23.066;2023-09-08T02:19:24;4.45;;;3.45;;
23044;SDS011;11690;51.716;23.066;2023-09-08T02:21:51;5.70;;;3.75;;
23044;SDS011;11690;51.716;23.066;2023-09-08T02:24:18;6.82;;;3.88;;
23044;SDS011;11690;51.716;23.066;2023-09-08T02:26:45;10.43;;;3.80;;
23044;SDS011;11690;51.716;23.066;2023-09-08T02:29:14;7.45;;;3.85;;
23044;SDS011;11690;51.716;23.066;2023-09-08T02:31:41;7.95;;;3.83;;
23044;SDS011;11690;51.716;23.066;2023-09-08T02:34:08;6.00;;;3.75;;
23044;SDS011;11690;51.716;23.066;2023-09-08T02:36:36;6.57;;;3.65;;
23044;SDS011;11690;51.716;23.066;2023-09-08T02:39:04;8.93;;;3.78;;
23044;SDS011;11690;51.716;23.066;2023-09-08T02:41:31;9.65;;;4.15;;
23044;SDS011;11690;51.716;23.066;2023-09-08T02:44:00;7.45;;;3.88;;
23044;SDS011;11690;51.716;23.066;2023-09-08T02:46:28;6.65;;;4.10;;
23044;SDS011;11690;51.716;23.066;2023-09-08T02:48:56;8.80;;;3.95;;
23044;SDS011;11690;51.716;23.066;2023-09-08T02:51:23;6.88;;;3.90;;
23044;SDS011;11690;51.716;23.066;2023-09-08T02:53:50;8.13;;;3.92;;
23044;SDS011;11690;51.716;23.066;2023-09-08T02:56:17;11.15;;;4.40;;
23044;SDS011;11690;51.716;23.066;2023-09-08T02:58:45;10.65;;;3.83;;
23044;SDS011;11690;51.716;23.066;2023-09-08T03:03:46;7.15;;;3.88;;
23044;SDS011;11690;51.716;23.066;2023-09-08T03:06:15;5.53;;;3.35;;
23044;SDS011;11690;51.716;23.066;2023-09-08T03:08:44;6.65;;;3.45;;
23044;SDS011;11690;51.716;23.066;2023-09-08T03:11:11;8.60;;;3.25;;
23044;SDS011;11690;51.716;23.066;2023-09-08T03:13:39;5.50;;;3.15;;
23044;SDS011;11690;51.716;23.066;2023-09-08T03:16:07;6.43;;;3.58;;
23044;SDS011;11690;51.716;23.066;2023-09-08T03:18:35;7.55;;;3.78;;
23044;SDS011;11690;51.716;23.066;2023-09-08T03:21:04;9.52;;;3.15;;
23044;SDS011;11690;51.716;23.066;2023-09-08T03:26:05;9.63;;;3.45;;
23044;SDS011;11690;51.716;23.066;2023-09-08T03:28:33;9.32;;;3.55;;
23044;SDS011;11690;51.716;23.066;2023-09-08T03:31:02;7.80;;;3.58;;
23044;SDS011;11690;51.716;23.066;2023-09-08T03:33:31;8.32;;;3.55;;
23044;SDS011;11690;51.716;23.066;2023-09-08T03:35:59;7.97;;;3.55;;
23044;SDS011;11690;51.716;23.066;2023-09-08T03:38:28;6.63;;;3.20;;
23044;SDS011;11690;51.716;23.066;2023-09-08T03:40:55;6.25;;;3.78;;
23044;SDS011;11690;51.716;23.066;2023-09-08T03:43:24;8.85;;;3.53;;
23044;SDS011;11690;51.716;23.066;2023-09-08T03:45:51;7.15;;;4.10;;
23044;SDS011;11690;51.716;23.066;2023-09-08T03:48:18;8.25;;;3.63;;
23044;SDS011;11690;51.716;23.066;2023-09-08T03:50:45;8.60;;;2.90;;
23044;SDS011;11690;51.716;23.066;2023-09-08T03:53:14;8.95;;;3.30;;
23044;SDS011;11690;51.716;23.066;2023-09-08T03:55:41;9.48;;;3.20;;
23044;SDS011;11690;51.716;23.066;2023-09-08T03:58:08;7.43;;;3.13;;
23044;SDS011;11690;51.716;23.066;2023-09-08T04:00:35;4.82;;;3.10;;
23044;SDS011;11690;51.716;23.066;2023-09-08T04:03:04;4.97;;;3.38;;
23044;SDS011;11690;51.716;23.066;2023-09-08T04:05:31;5.82;;;3.40;;
23044;SDS011;11690;51.716;23.066;2023-09-08T04:07:59;7.65;;;3.05;;
23044;SDS011;11690;51.716;23.066;2023-09-08T04:10:27;5.38;;;3.38;;
23044;SDS011;11690;51.716;23.066;2023-09-08T04:12:54;7.55;;;3.40;;
23044;SDS011;11690;51.716;23.066;2023-09-08T04:15:21;5.95;;;3.45;;
23044;SDS011;11690;51.716;23.066;2023-09-08T04:17:50;8.18;;;3.78;;
23044;SDS011;11690;51.716;23.066;2023-09-08T04:20:17;8.60;;;3.75;;
23044;SDS011;11690;51.716;23.066;2023-09-08T04:22:44;4.43;;;3.20;;
23044;SDS011;11690;51.716;23.066;2023-09-08T04:25:12;6.90;;;3.55;;
23044;SDS011;11690;51.716;23.066;2023-09-08T04:27:39;7.80;;;3.33;;
23044;SDS011;11690;51.716;23.066;2023-09-08T04:30:07;7.18;;;3.60;;
23044;SDS011;11690;51.716;23.066;2023-09-08T04:32:35;7.03;;;3.58;;
23044;SDS011;11690;51.716;23.066;2023-09-08T04:35:04;9.48;;;3.78;;
23044;SDS011;11690;51.716;23.066;2023-09-08T04:37:34;5.38;;;3.38;;
23044;SDS011;11690;51.716;23.066;2023-09-08T04:40:01;8.35;;;3.97;;
23044;SDS011;11690;51.716;23.066;2023-09-08T04:42:30;6.82;;;4.00;;
23044;SDS011;11690;51.716;23.066;2023-09-08T04:44:59;5.18;;;3.47;;
23044;SDS011;11690;51.716;23.066;2023-09-08T04:47:27;4.88;;;3.40;;
23044;SDS011;11690;51.716;23.066;2023-09-08T04:49:54;6.63;;;3.83;;
23044;SDS011;11690;51.716;23.066;2023-09-08T04:52:22;6.82;;;3.40;;
23044;SDS011;11690;51.716;23.066;2023-09-08T04:54:49;8.07;;;3.33;;
23044;SDS011;11690;51.716;23.066;2023-09-08T04:57:17;6.57;;;3.70;;
23044;SDS011;11690;51.716;23.066;2023-09-08T04:59:52;5.03;;;3.63;;
23044;SDS011;11690;51.716;23.066;2023-09-08T05:02:20;9.15;;;3.80;;
23044;SDS011;11690;51.716;23.066;2023-09-08T05:04:47;5.70;;;3.63;;
23044;SDS011;11690;51.716;23.066;2023-09-08T05:07:15;7.50;;;3.58;;
23044;SDS011;11690;51.716;23.066;2023-09-08T05:09:43;9.02;;;3.78;;
23044;SDS011;11690;51.716;23.066;2023-09-08T05:12:10;6.90;;;4.13;;
23044;SDS011;11690;51.716;23.066;2023-09-08T05:14:37;9.05;;;3.83;;
23044;SDS011;11690;51.716;23.066;2023-09-08T05:17:05;6.75;;;3.60;;
23044;SDS011;11690;51.716;23.066;2023-09-08T05:19:32;6.85;;;3.63;;
23044;SDS011;11690;51.716;23.066;2023-09-08T05:21:59;6.03;;;3.45;;
23044;SDS011;11690;51.716;23.066;2023-09-08T05:24:28;8.93;;;3.88;;
23044;SDS011;11690;51.716;23.066;2023-09-08T05:26:57;6.55;;;3.88;;
23044;SDS011;11690;51.716;23.066;2023-09-08T05:29:25;8.30;;;3.67;;
23044;SDS011;11690;51.716;23.066;2023-09-08T05:31:53;6.30;;;3.33;;
23044;SDS011;11690;51.716;23.066;2023-09-08T05:34:21;7.85;;;3.30;;
23044;SDS011;11690;51.716;23.066;2023-09-08T05:36:48;7.90;;;4.03;;
23044;SDS011;11690;51.716;23.066;2023-09-08T05:39:15;7.15;;;4.07;;
23044;SDS011;11690;51.716;23.066;2023-09-08T05:41:44;7.28;;;4.07;;
23044;SDS011;11690;51.716;23.066;2023-09-08T05:44:12;8.85;;;3.88;;
23044;SDS011;11690;51.716;23.066;2023-09-08T05:46:40;7.03;;;3.55;;
23044;SDS011;11690;51.716;23.066;2023-09-08T05:49:07;5.50;;;3.33;;
23044;SDS011;11690;51.716;23.066;2023-09-08T05:51:35;7.68;;;3.50;;
23044;SDS011;11690;51.716;23.066;2023-09-08T05:54:02;7.63;;;3.63;;
23044;SDS011;11690;51.716;23.066;2023-09-08T05:56:30;7.05;;;3.40;;
23044;SDS011;11690;51.716;23.066;2023-09-08T05:59:00;7.15;;;4.00;;
23044;SDS011;11690;51.716;23.066;2023-09-08T06:01:29;7.82;;;3.75;;
23044;SDS011;11690;51.716;23.066;2023-09-08T06:03:58;6.07;;;3.70;;
23044;SDS011;11690;51.716;23.066;2023-09-08T06:06:28;10.07;;;3.72;;
23044;SDS011;11690;51.716;23.066;2023-09-08T06:08:55;8.90;;;4.00;;
23044;SDS011;11690;51.716;23.066;2023-09-08T06:11:23;8.90;;;3.67;;
23044;SDS011;11690;51.716;23.066;2023-09-08T06:13:50;9.60;;;4.10;;
23044;SDS011;11690;51.716;23.066;2023-09-08T06:16:19;10.35;;;4.35;;
23044;SDS011;11690;51.716;23.066;2023-09-08T06:18:46;6.50;;;4.18;;
23044;SDS011;11690;51.716;23.066;2023-09-08T06:21:17;5.97;;;3.58;;
23044;SDS011;11690;51.716;23.066;2023-09-08T06:23:45;10.35;;;4.45;;
23044;SDS011;11690;51.716;23.066;2023-09-08T06:26:13;9.18;;;3.60;;
23044;SDS011;11690;51.716;23.066;2023-09-08T06:28:40;10.38;;;3.85;;
23044;SDS011;11690;51.716;23.066;2023-09-08T06:31:10;8.57;;;3.63;;
23044;SDS011;11690;51.716;23.066;2023-09-08T06:33:39;8.85;;;3.63;;
23044;SDS011;11690;51.716;23.066;2023-09-08T06:36:07;9.73;;;3.95;;
23044;SDS011;11690;51.716;23.066;2023-09-08T06:38:34;7.80;;;3.72;;
23044;SDS011;11690;51.716;23.066;2023-09-08T06:41:09;6.80;;;4.07;;
23044;SDS011;11690;51.716;23.066;2023-09-08T06:43:38;6.93;;;4.03;;
23044;SDS011;11690;51.716;23.066;2023-09-08T06:46:12;8.02;;;4.00;;
23044;SDS011;11690;51.716;23.066;2023-09-08T06:48:39;9.57;;;3.80;;
23044;SDS011;11690;51.716;23.066;2023-09-08T06:51:07;7.80;;;3.90;;
23044;SDS011;11690;51.716;23.066;2023-09-08T06:53:37;9.27;;;4.25;;
23044;SDS011;11690;51.716;23.066;2023-09-08T06:56:05;6.18;;;4.03;;
23044;SDS011;11690;51.716;23.066;2023-09-08T06:58:33;6.55;;;3.47;;
23044;SDS011;11690;51.716;23.066;2023-09-08T07:01:02;9.60;;;4.07;;
23044;SDS011;11690;51.716;23.066;2023-09-08T07:03:29;11.88;;;4.53;;
23044;SDS011;11690;51.716;23.066;2023-09-08T07:06:06;6.88;;;3.53;;
23044;SDS011;11690;51.716;23.066;2023-09-08T07:08:33;9.23;;;4.10;;
23044;SDS011;11690;51.716;23.066;2023-09-08T07:11:01;6.97;;;4.22;;
23044;SDS011;11690;51.716;23.066;2023-09-08T07:13:28;9.90;;;4.53;;
23044;SDS011;11690;51.716;23.066;2023-09-08T07:15:57;9.27;;;4.40;;
23044;SDS011;11690;51.716;23.066;2023-09-08T07:18:24;8.50;;;3.90;;
23044;SDS011;11690;51.716;23.066;2023-09-08T07:20:52;8.48;;;4.40;;
23044;SDS011;11690;51.716;23.066;2023-09-08T07:23:20;10.55;;;4.35;;
23044;SDS011;11690;51.716;23.066;2023-09-08T07:25:47;9.35;;;4.53;;
23044;SDS011;11690;51.716;23.066;2023-09-08T07:28:17;9.18;;;4.53;;
23044;SDS011;11690;51.716;23.066;2023-09-08T07:30:46;9.23;;;3.80;;
23044;SDS011;11690;51.716;23.066;2023-09-08T07:33:13;8.70;;;5.03;;
23044;SDS011;11690;51.716;23.066;2023-09-08T07:35:42;8.38;;;4.47;;
23044;SDS011;11690;51.716;23.066;2023-09-08T07:38:09;14.93;;;5.18;;
23044;SDS011;11690;51.716;23.066;2023-09-08T07:40:37;10.57;;;4.63;;
23044;SDS011;11690;51.716;23.066;2023-09-08T07:43:05;10.43;;;4.90;;
23044;SDS011;11690;51.716;23.066;2023-09-08T07:45:33;8.85;;;4.15;;
23044;SDS011;11690;51.716;23.066;2023-09-08T07:48:00;11.20;;;5.15;;
23044;SDS011;11690;51.716;23.066;2023-09-08T07:50:28;8.43;;;4.68;;
23044;SDS011;11690;51.716;23.066;2023-09-08T07:52:56;11.65;;;5.75;;
23044;SDS011;11690;51.716;23.066;2023-09-08T07:55:24;9.95;;;5.22;;
23044;SDS011;11690;51.716;23.066;2023-09-08T07:57:54;10.82;;;5.13;;
23044;SDS011;11690;51.716;23.066;2023-09-08T08:00:22;9.38;;;4.50;;
23044;SDS011;11690;51.716;23.066;2023-09-08T08:02:49;10.23;;;4.93;;
23044;SDS011;11690;51.716;23.066;2023-09-08T08:05:18;11.52;;;5.05;;
23044;SDS011;11690;51.716;23.066;2023-09-08T08:07:45;11.43;;;4.97;;
23044;SDS011;11690;51.716;23.066;2023-09-08T08:10:13;12.30;;;4.68;;
23044;SDS011;11690;51.716;23.066;2023-09-08T08:12:40;9.10;;;4.53;;
23044;SDS011;11690;51.716;23.066;2023-09-08T08:15:09;8.68;;;4.70;;
23044;SDS011;11690;51.716;23.066;2023-09-08T08:17:39;7.82;;;3.95;;
23044;SDS011;11690;51.716;23.066;2023-09-08T08:20:08;11.85;;;4.00;;
23044;SDS011;11690;51.716;23.066;2023-09-08T08:22:37;7.90;;;3.90;;
23044;SDS011;11690;51.716;23.066;2023-09-08T08:25:05;11.68;;;3.92;;
23044;SDS011;11690;51.716;23.066;2023-09-08T08:27:32;8.57;;;4.00;;
23044;SDS011;11690;51.716;23.066;2023-09-08T08:29:59;5.15;;;3.25;;
23044;SDS011;11690;51.716;23.066;2023-09-08T08:32:28;10.27;;;3.97;;
23044;SDS011;11690;51.716;23.066;2023-09-08T08:34:55;6.50;;;3.25;;
23044;SDS011;11690;51.716;23.066;2023-09-08T08:37:23;9.35;;;3.40;;
23044;SDS011;11690;51.716;23.066;2023-09-08T08:39:51;5.97;;;3.33;;
23044;SDS011;11690;51.716;23.066;2023-09-08T08:42:18;10.82;;;3.65;;
23044;SDS011;11690;51.716;23.066;2023-09-08T08:44:49;5.68;;;3.30;;
23044;SDS011;11690;51.716;23.066;2023-09-08T08:47:17;6.68;;;3.58;;
23044;SDS011;11690;51.716;23.066;2023-09-08T08:49:46;8.20;;;3.40;;
23044;SDS011;11690;51.716;23.066;2023-09-08T08:52:14;8.05;;;3.22;;
23044;SDS011;11690;51.716;23.066;2023-09-08T08:54:42;6.25;;;3.20;;
23044;SDS011;11690;51.716;23.066;2023-09-08T08:57:09;6.40;;;3.33;;
23044;SDS011;11690;51.716;23.066;2023-09-08T08:59:38;6.70;;;3.03;;
23044;SDS011;11690;51.716;23.066;2023-09-08T09:02:08;6.57;;;3.08;;
23044;SDS011;11690;51.716;23.066;2023-09-08T09:04:37;4.28;;;2.85;;
23044;SDS011;11690;51.716;23.066;2023-09-08T09:07:07;3.65;;;1.88;;
23044;SDS011;11690;51.716;23.066;2023-09-08T09:09:34;6.97;;;2.30;;
23044;SDS011;11690;51.716;23.066;2023-09-08T09:12:02;4.68;;;2.10;;
23044;SDS011;11690;51.716;23.066;2023-09-08T09:14:33;2.90;;;1.98;;
23044;SDS011;11690;51.716;23.066;2023-09-08T09:17:01;2.55;;;1.85;;
23044;SDS011;11690;51.716;23.066;2023-09-08T09:19:31;3.30;;;1.77;;
23044;SDS011;11690;51.716;23.066;2023-09-08T09:21:59;3.42;;;2.13;;
23044;SDS011;11690;51.716;23.066;2023-09-08T09:27:00;4.10;;;2.15;;
23044;SDS011;11690;51.716;23.066;2023-09-08T09:29:29;4.63;;;2.17;;
23044;SDS011;11690;51.716;23.066;2023-09-08T09:31:57;3.42;;;2.05;;
23044;SDS011;11690;51.716;23.066;2023-09-08T09:34:26;4.32;;;2.22;;
23044;SDS011;11690;51.716;23.066;2023-09-08T09:36:53;3.20;;;1.88;;
23044;SDS011;11690;51.716;23.066;2023-09-08T09:39:21;3.05;;;2.05;;
23044;SDS011;11690;51.716;23.066;2023-09-08T09:41:53;4.22;;;1.88;;
23044;SDS011;11690;51.716;23.066;2023-09-08T09:44:24;5.30;;;2.10;;
23044;SDS011;11690;51.716;23.066;2023-09-08T09:46:52;3.95;;;1.98;;
23044;SDS011;11690;51.716;23.066;2023-09-08T09:49:19;3.47;;;2.08;;
23044;SDS011;11690;51.716;23.066;2023-09-08T09:51:47;4.20;;;2.05;;
23044;SDS011;11690;51.716;23.066;2023-09-08T09:54:16;2.65;;;1.83;;
23044;SDS011;11690;51.716;23.066;2023-09-08T09:56:44;3.03;;;1.98;;
23044;SDS011;11690;51.716;23.066;2023-09-08T09:59:13;4.53;;;2.03;;
23044;SDS011;11690;51.716;23.066;2023-09-08T10:01:40;3.67;;;1.90;;
23044;SDS011;11690;51.716;23.066;2023-09-08T10:04:09;2.22;;;1.63;;
23044;SDS011;11690;51.716;23.066;2023-09-08T10:06:38;3.80;;;1.90;;
23044;SDS011;11690;51.716;23.066;2023-09-08T10:09:06;4.55;;;2.10;;
23044;SDS011;11690;51.716;23.066;2023-09-08T10:11:42;3.83;;;2.10;;
23044;SDS011;11690;51.716;23.066;2023-09-08T10:14:11;3.47;;;1.85;;
23044;SDS011;11690;51.716;23.066;2023-09-08T10:16:39;2.83;;;1.50;;
23044;SDS011;11690;51.716;23.066;2023-09-08T10:19:10;4.10;;;1.73;;
23044;SDS011;11690;51.716;23.066;2023-09-08T10:21:39;6.28;;;2.20;;
23044;SDS011;11690;51.716;23.066;2023-09-08T10:24:13;7.93;;;2.28;;
23044;SDS011;11690;51.716;23.066;2023-09-08T10:26:56;3.25;;;1.77;;
23044;SDS011;11690;51.716;23.066;2023-09-08T10:29:29;3.38;;;1.67;;
23044;SDS011;11690;51.716;23.066;2023-09-08T10:31:56;3.13;;;1.83;;
23044;SDS011;11690;51.716;23.066;2023-09-08T10:34:24;5.78;;;1.95;;
23044;SDS011;11690;51.716;23.066;2023-09-08T10:36:52;3.22;;;1.98;;
23044;SDS011;11690;51.716;23.066;2023-09-08T10:39:32;7.35;;;1.90;;
23044;SDS011;11690;51.716;23.066;2023-09-08T10:42:39;4.43;;;2.15;;
23044;SDS011;11690;51.716;23.066;2023-09-08T10:45:00;9.18;;;1.90;;
23044;SDS011;11690;51.716;23.066;2023-09-08T10:48:14;3.95;;;1.92;;
23044;SDS011;11690;51.716;23.066;2023-09-08T10:50:30;3.65;;;2.00;;
23044;SDS011;11690;51.716;23.066;2023-09-08T10:55:41;5.43;;;2.00;;
23044;SDS011;11690;51.716;23.066;2023-09-08T10:58:38;3.40;;;1.95;;
23044;SDS011;11690;51.716;23.066;2023-09-08T11:01:08;3.20;;;2.00;;
23044;SDS011;11690;51.716;23.066;2023-09-08T11:06:12;5.07;;;2.33;;
23044;SDS011;11690;51.716;23.066;2023-09-08T11:08:42;4.13;;;1.95;;
23044;SDS011;11690;51.716;23.066;2023-09-08T11:11:11;7.93;;;2.40;;
23044;SDS011;11690;51.716;23.066;2023-09-08T11:13:41;6.65;;;1.90;;
23044;SDS011;11690;51.716;23.066;2023-09-08T11:16:15;3.72;;;2.13;;
23044;SDS011;11690;51.716;23.066;2023-09-08T11:18:43;3.60;;;2.25;;
23044;SDS011;11690;51.716;23.066;2023-09-08T11:21:10;3.75;;;2.08;;
23044;SDS011;11690;51.716;23.066;2023-09-08T11:23:38;5.95;;;2.35;;
23044;SDS011;11690;51.716;23.066;2023-09-08T11:26:05;3.28;;;2.17;;
23044;SDS011;11690;51.716;23.066;2023-09-08T11:28:33;4.97;;;1.98;;
23044;SDS011;11690;51.716;23.066;2023-09-08T11:31:01;6.53;;;1.85;;
23044;SDS011;11690;51.716;23.066;2023-09-08T11:33:33;4.25;;;2.05;;
23044;SDS011;11690;51.716;23.066;2023-09-08T11:36:01;5.15;;;2.05;;
23044;SDS011;11690;51.716;23.066;2023-09-08T11:38:28;3.22;;;2.00;;
23044;SDS011;11690;51.716;23.066;2023-09-08T11:40:57;2.15;;;1.55;;
23044;SDS011;11690;51.716;23.066;2023-09-08T11:43:25;4.28;;;2.22;;
23044;SDS011;11690;51.716;23.066;2023-09-08T11:45:53;3.95;;;1.85;;
23044;SDS011;11690;51.716;23.066;2023-09-08T11:48:20;5.10;;;1.70;;
23044;SDS011;11690;51.716;23.066;2023-09-08T11:50:47;3.63;;;1.80;;
23044;SDS011;11690;51.716;23.066;2023-09-08T11:53:18;4.45;;;1.85;;
23044;SDS011;11690;51.716;23.066;2023-09-08T11:55:46;10.80;;;1.50;;
23044;SDS011;11690;51.716;23.066;2023-09-08T11:58:13;3.00;;;1.60;;
23044;SDS011;11690;51.716;23.066;2023-09-08T12:00:42;4.03;;;1.50;;
23044;SDS011;11690;51.716;23.066;2023-09-08T12:03:13;4.25;;;1.83;;
23044;SDS011;11690;51.716;23.066;2023-09-08T12:05:44;5.93;;;1.42;;
23044;SDS011;11690;51.716;23.066;2023-09-08T12:08:17;7.75;;;2.08;;
23044;SDS011;11690;51.716;23.066;2023-09-08T12:10:45;3.78;;;1.70;;
23044;SDS011;11690;51.716;23.066;2023-09-08T12:13:12;2.05;;;1.23;;
23044;SDS011;11690;51.716;23.066;2023-09-08T12:15:41;4.20;;;1.63;;
23044;SDS011;11690;51.716;23.066;2023-09-08T12:18:11;3.17;;;1.70;;
23044;SDS011;11690;51.716;23.066;2023-09-08T12:20:39;3.75;;;2.05;;
23044;SDS011;11690;51.716;23.066;2023-09-08T12:23:15;5.20;;;1.92;;
23044;SDS011;11690;51.716;23.066;2023-09-08T12:25:47;4.03;;;1.85;;
23044;SDS011;11690;51.716;23.066;2023-09-08T12:28:16;3.08;;;1.83;;
23044;SDS011;11690;51.716;23.066;2023-09-08T12:30:45;3.75;;;1.60;;
23044;SDS011;11690;51.716;23.066;2023-09-08T12:33:12;5.78;;;2.10;;
23044;SDS011;11690;51.716;23.066;2023-09-08T12:35:42;5.22;;;1.88;;
23044;SDS011;11690;51.716;23.066;2023-09-08T12:38:11;3.97;;;1.90;;
23044;SDS011;11690;51.716;23.066;2023-09-08T12:40:40;3.33;;;1.60;;
23044;SDS011;11690;51.716;23.066;2023-09-08T12:43:07;2.38;;;1.58;;
23044;SDS011;11690;51.716;23.066;2023-09-08T12:45:54;4.22;;;1.70;;
23044;SDS011;11690;51.716;23.066;2023-09-08T12:48:23;2.72;;;1.55;;
23044;SDS011;11690;51.716;23.066;2023-09-08T12:50:51;1.70;;;1.58;;
23044;SDS011;11690;51.716;23.066;2023-09-08T12:53:18;2.17;;;1.48;;
23044;SDS011;11690;51.716;23.066;2023-09-08T12:55:46;3.67;;;1.70;;
23044;SDS011;11690;51.716;23.066;2023-09-08T12:58:13;4.22;;;1.60;;
23044;SDS011;11690;51.716;23.066;2023-09-08T13:00:41;2.58;;;1.55;;
23044;SDS011;11690;51.716;23.066;2023-09-08T13:03:09;5.85;;;1.35;;
23044;SDS011;11690;51.716;23.066;2023-09-08T13:05:36;3.25;;;1.70;;
23044;SDS011;11690;51.716;23.066;2023-09-08T13:08:05;3.05;;;1.65;;
23044;SDS011;11690;51.716;23.066;2023-09-08T13:10:33;2.83;;;1.70;;
23044;SDS011;11690;51.716;23.066;2023-09-08T13:13:00;2.97;;;1.60;;
23044;SDS011;11690;51.716;23.066;2023-09-08T13:15:28;5.13;;;1.67;;
23044;SDS011;11690;51.716;23.066;2023-09-08T13:17:55;2.40;;;1.60;;
23044;SDS011;11690;51.716;23.066;2023-09-08T13:20:22;2.67;;;1.52;;
23044;SDS011;11690;51.716;23.066;2023-09-08T13:22:50;2.88;;;1.50;;
23044;SDS011;11690;51.716;23.066;2023-09-08T13:25:17;6.55;;;1.60;;
23044;SDS011;11690;51.716;23.066;2023-09-08T13:27:45;4.65;;;1.60;;
23044;SDS011;11690;51.716;23.066;2023-09-08T13:30:15;1.40;;;1.02;;
23044;SDS011;11690;51.716;23.066;2023-09-08T13:32:43;4.60;;;1.42;;
23044;SDS011;11690;51.716;23.066;2023-09-08T13:35:11;5.18;;;1.92;;
23044;SDS011;11690;51.716;23.066;2023-09-08T13:37:39;3.08;;;1.48;;
23044;SDS011;11690;51.716;23.066;2023-09-08T13:40:06;2.83;;;1.73;;
23044;SDS011;11690;51.716;23.066;2023-09-08T13:42:35;5.53;;;1.70;;
23044;SDS011;11690;51.716;23.066;2023-09-08T13:45:03;2.80;;;1.75;;
23044;SDS011;11690;51.716;23.066;2023-09-08T13:47:31;2.17;;;1.35;;
23044;SDS011;11690;51.716;23.066;2023-09-08T13:50:00;4.63;;;1.60;;
23044;SDS011;11690;51.716;23.066;2023-09-08T13:52:32;4.65;;;1.83;;
23044;SDS011;11690;51.716;23.066;2023-09-08T13:55:07;6.38;;;1.92;;
23044;SDS011;11690;51.716;23.066;2023-09-08T13:57:37;2.55;;;1.75;;
23044;SDS011;11690;51.716;23.066;2023-09-08T14:00:08;2.45;;;1.52;;
23044;SDS011;11690;51.716;23.066;2023-09-08T14:02:42;4.80;;;1.90;;
23044;SDS011;11690;51.716;23.066;2023-09-08T14:05:16;4.03;;;1.55;;
23044;SDS011;11690;51.716;23.066;2023-09-08T14:07:50;4.78;;;1.85;;
23044;SDS011;11690;51.716;23.066;2023-09-08T14:10:31;4.13;;;1.50;;
23044;SDS011;11690;51.716;23.066;2023-09-08T14:13:16;2.45;;;1.45;;
23044;SDS011;11690;51.716;23.066;2023-09-08T14:15:44;2.38;;;1.60;;
23044;SDS011;11690;51.716;23.066;2023-09-08T14:18:12;4.47;;;1.52;;
23044;SDS011;11690;51.716;23.066;2023-09-08T14:20:41;3.40;;;1.98;;
23044;SDS011;11690;51.716;23.066;2023-09-08T14:23:09;3.55;;;1.48;;
23044;SDS011;11690;51.716;23.066;2023-09-08T14:25:36;5.22;;;1.90;;
23044;SDS011;11690;51.716;23.066;2023-09-08T14:28:04;2.67;;;1.70;;
23044;SDS011;11690;51.716;23.066;2023-09-08T14:30:34;6.00;;;1.98;;
23044;SDS011;11690;51.716;23.066;2023-09-08T14:33:02;3.90;;;2.03;;
23044;SDS011;11690;51.716;23.066;2023-09-08T14:35:30;5.22;;;1.90;;
23044;SDS011;11690;51.716;23.066;2023-09-08T14:37:57;4.43;;;2.10;;
23044;SDS011;11690;51.716;23.066;2023-09-08T14:40:25;2.92;;;1.77;;
23044;SDS011;11690;51.716;23.066;2023-09-08T14:42:52;10.98;;;1.80;;
23044;SDS011;11690;51.716;23.066;2023-09-08T14:45:20;3.13;;;1.90;;
23044;SDS011;11690;51.716;23.066;2023-09-08T14:47:47;3.28;;;2.10;;
23044;SDS011;11690;51.716;23.066;2023-09-08T14:50:15;2.58;;;1.80;;
23044;SDS011;11690;51.716;23.066;2023-09-08T14:52:42;4.35;;;2.00;;
23044;SDS011;11690;51.716;23.066;2023-09-08T14:55:10;6.03;;;2.10;;
23044;SDS011;11690;51.716;23.066;2023-09-08T14:57:37;6.38;;;2.25;;
23044;SDS011;11690;51.716;23.066;2023-09-08T15:00:04;2.92;;;1.90;;